Terminal Aerodrome Forecast
Issued by NWS

Home | Current Version | Previous Version | Text Only | Print | Product List | Glossary On
Versions: 1 2 3 4 5 6 7 8 9 10 11 12 13 14
000
FTUS45 KREV 241722
TAFMMH
TAF
KMMH 241722Z 2418/2518 30008KT P6SM SKC
     FM250400 VRB04KT P6SM SKC
     FM251600 09006KT P6SM FEW180=

USA.gov is the U.S. government's official web portal to all federal, state and local government web resources and services.